Time;durP1;ratioP1;P1;durP2;ratioP2;P2;SDS_P1;SDS_P2;PMS_P1;PMS_P2;Temp;Humidity;BMP_temperature;BMP_pressure;BME280_temperature;BME280_humidity;BME280_pressure;Samples;Min_cycle;Max_cycle;Signal;HPM_P1;HPM_P2
2022/08/12 00:44:56;;;;;;;5.83;4.53;;;;;;;-141.28;100.00;45505.22;5073372;28;20233;-75
2022/08/12 00:47:25;;;;;;;6.13;4.90;;;;;;;-141.28;100.00;45509.13;5072958;28;20283;-78
2022/08/12 00:49:53;;;;;;;7.20;4.37;;;;;;;-141.28;100.00;45509.13;5073729;28;20667;-75
2022/08/12 00:52:20;;;;;;;5.80;4.20;;;;;;;-141.28;100.00;45516.97;5073462;28;20220;-76
2022/08/12 00:54:49;;;;;;;5.50;4.70;;;;;;;-141.28;100.00;45516.97;5073797;28;20207;-74
2022/08/12 00:57:18;;;;;;;7.07;4.30;;;;;;;-141.28;100.00;45513.06;5041175;28;20197;-75
2022/08/12 00:59:50;;;;;;;4.80;4.30;;;;;;;-141.28;100.00;45536.56;5053956;28;20197;-76
2022/08/12 01:02:23;;;;;;;6.53;4.47;;;;;;;-141.28;100.00;45501.28;5054299;28;20205;-75
2022/08/12 01:13:14;;;;;;;5.30;4.80;;;;;;;-141.28;100.00;45505.22;5072913;28;20623;-75
2022/08/12 01:15:44;;;;;;;5.47;4.17;;;;;;;-141.28;100.00;45518.94;5073195;28;20577;-75
2022/08/12 01:18:12;;;;;;;7.50;4.70;;;;;;;-141.28;100.00;45528.72;5072326;28;20227;-75
2022/08/12 01:20:49;;;;;;;7.43;4.70;;;;;;;-141.28;100.00;45516.97;5073307;28;20200;-77
2022/08/12 01:24:01;;;;;;;5.37;4.07;;;;;;;-141.28;100.00;45479.72;5062136;28;20291;-77
2022/08/12 01:26:34;;;;;;;5.83;4.00;;;;;;;-141.28;100.00;45487.56;5065562;28;20204;-74
2022/08/12 01:29:04;;;;;;;5.23;4.13;;;;;;;-141.28;100.00;45516.97;5054266;28;20378;-76
2022/08/12 01:31:34;;;;;;;3.83;3.53;;;;;;;-141.28;100.00;45552.25;5073061;28;20712;-75
2022/08/12 01:34:05;;;;;;;5.03;3.47;;;;;;;-141.28;100.00;45520.91;5072471;28;20197;-75
2022/08/12 01:36:40;;;;;;;5.30;3.87;;;;;;;-141.28;100.00;45524.81;5073045;28;20694;-77
2022/08/12 01:39:08;;;;;;;5.23;3.97;;;;;;;-141.28;100.00;45532.66;5056065;28;20204;-75
2022/08/12 01:41:45;;;;;;;4.60;4.00;;;;;;;-141.28;100.00;45516.97;5053263;28;20353;-75
2022/08/12 01:44:15;;;;;;;6.40;3.80;;;;;;;-141.28;100.00;45513.06;5052993;28;20254;-74
2022/08/12 01:46:58;;;;;;;5.30;3.90;;;;;;;-141.28;100.00;45501.28;5053287;28;20204;-75
2022/08/12 01:49:47;;;;;;;3.93;3.50;;;;;;;-141.28;100.00;45497.38;5042146;28;20224;-76
2022/08/12 01:52:29;;;;;;;3.80;3.50;;;;;;;-141.28;100.00;45491.50;5058460;28;20588;-74
2022/08/12 01:54:57;;;;;;;4.80;3.60;;;;;;;-141.28;100.00;45509.13;5072617;28;20277;-76
2022/08/12 01:57:35;;;;;;;4.17;3.40;;;;;;;-141.28;100.00;45522.84;5062741;28;20219;-75
2022/08/12 02:00:05;;;;;;;5.63;3.90;;;;;;;-141.28;100.00;45520.91;5052822;28;20197;-74
2022/08/12 02:02:36;;;;;;;5.00;4.00;;;;;;;-141.28;100.00;45544.41;5053075;28;20205;-75
2022/08/12 02:11:18;;;;;;;3.73;3.33;;;;;;;-141.28;100.00;45520.91;5071497;28;20231;-75
2022/08/12 02:14:24;;;;;;;4.40;3.07;;;;;;;-141.28;100.00;45499.34;5071745;28;20196;-77
2022/08/12 02:17:05;;;;;;;3.70;3.40;;;;;;;-141.28;100.00;45499.34;5048888;28;20561;-77
2022/08/12 02:19:53;;;;;;;3.87;3.53;;;;;;;-141.28;100.00;45520.91;5071671;28;20192;-74
2022/08/12 02:22:28;;;;;;;5.20;3.77;;;;;;;-141.28;100.00;45540.50;5070852;28;20205;-73
2022/08/12 02:25:01;;;;;;;7.30;4.73;;;;;;;-141.28;100.00;45520.91;5071693;28;20638;-74
2022/08/12 02:27:34;;;;;;;7.07;5.10;;;;;;;-141.28;100.00;45567.94;5055357;28;20322;-77
2022/08/12 02:30:04;;;;;;;11.07;5.30;;;;;;;-141.28;100.00;45522.84;5051778;28;20301;-75
2022/08/12 02:32:38;;;;;;;5.73;5.17;;;;;;;-141.28;100.00;45522.84;5068183;28;20231;-74
2022/08/12 02:35:09;;;;;;;8.03;5.97;;;;;;;-141.28;100.00;45511.09;5075088;28;20192;-75
2022/08/12 02:37:40;;;;;;;8.97;5.93;;;;;;;-141.28;100.00;45513.06;5064092;28;20201;-77
2022/08/12 02:40:09;;;;;;;6.77;5.83;;;;;;;-141.28;100.00;45536.56;5052249;28;20561;-76
2022/08/12 02:42:36;;;;;;;9.53;6.30;;;;;;;-141.28;100.00;45532.66;5065292;28;20204;-76
2022/08/12 02:45:10;;;;;;;9.30;5.77;;;;;;;-141.28;100.00;45536.56;5051795;28;20225;-76
2022/08/12 02:47:41;;;;;;;7.77;6.00;;;;;;;-141.28;100.00;45528.72;5052263;28;20231;-74
2022/08/12 02:50:10;;;;;;;9.20;6.37;;;;;;;-141.28;100.00;45552.25;5051907;28;20193;-77
2022/08/12 02:52:37;;;;;;;12.10;5.93;;;;;;;-141.28;100.00;45567.94;5067708;28;20232;-75
2022/08/12 02:55:14;;;;;;;7.30;5.93;;;;;;;-141.28;100.00;45571.84;5072043;28;20196;-77
2022/08/12 02:57:43;;;;;;;7.93;5.30;;;;;;;-141.28;100.00;45589.50;5071349;28;20670;-75
2022/08/12 03:00:19;;;;;;;9.93;5.17;;;;;;;-141.28;100.00;45589.50;5069150;28;20295;-76
2022/08/12 03:02:47;;;;;;;7.63;5.33;;;;;;;-141.28;100.00;45607.13;5065327;28;20258;-74
2022/08/12 03:05:17;;;;;;;5.57;5.07;;;;;;;-141.28;100.00;45607.13;5051798;28;20193;-75
2022/08/12 03:07:50;;;;;;;8.70;5.30;;;;;;;-141.28;100.00;45616.94;5051686;28;20203;-74
2022/08/12 03:10:23;;;;;;;8.57;5.00;;;;;;;-141.28;100.00;45614.97;5065247;28;20677;-76
2022/08/12 03:12:52;;;;;;;13.23;5.23;;;;;;;-141.28;100.00;45630.66;5044861;28;20224;-74
2022/08/12 03:15:23;;;;;;;6.17;4.83;;;;;;;-141.28;100.00;45642.41;5071011;28;20224;-75
2022/08/12 03:17:56;;;;;;;9.40;4.70;;;;;;;-141.28;100.00;45685.53;5058992;28;20196;-75
2022/08/12 03:20:24;;;;;;;5.30;4.80;;;;;;;-141.28;100.00;45681.63;5058480;28;20249;-76
2022/08/12 03:22:53;;;;;;;8.53;4.50;;;;;;;-141.28;100.00;45650.25;5069525;28;20290;-76
2022/08/12 03:25:25;;;;;;;5.97;4.40;;;;;;;-141.28;100.00;45662.00;5070927;28;20192;-74
2022/08/12 03:27:55;;;;;;;5.20;4.23;;;;;;;-141.28;100.00;45656.13;5057063;28;20203;-75
2022/08/12 03:30:25;;;;;;;6.00;4.37;;;;;;;-141.28;100.00;45658.09;5071403;28;20216;-75
2022/08/12 03:32:54;;;;;;;5.37;4.67;;;;;;;-141.28;100.00;45654.19;5057311;28;20228;-75
2022/08/12 03:35:26;;;;;;;6.40;4.17;;;;;;;-141.28;100.00;45665.94;5058025;28;20204;-75
2022/08/12 03:37:56;;;;;;;6.47;3.70;;;;;;;-141.28;100.00;45662.00;5051574;28;20205;-76
2022/08/12 04:02:55;;;;;;;5.60;4.80;;;;;;;-141.28;100.00;45646.34;5055028;28;20207;-76
2022/08/12 04:05:22;;;;;;;11.97;5.23;;;;;;;-141.28;100.00;45603.22;5055211;28;20196;-74
2022/08/12 04:07:51;;;;;;;9.73;5.00;;;;;;;-141.28;100.00;45599.28;5054932;28;20207;-74
2022/08/12 04:13:13;;;;;;;5.73;5.10;;;;;;;-141.28;100.00;45599.28;5054960;28;20199;-75
2022/08/12 04:13:17;;;;;;;8.03;5.40;;;;;;;-141.28;100.00;45552.25;5068104;28;20227;-76
2022/08/12 04:15:50;;;;;;;7.43;5.13;;;;;;;-141.28;100.00;45493.47;5068781;28;20699;-76
2022/08/12 04:18:22;;;;;;;6.83;5.13;;;;;;;-141.28;100.00;45473.84;5074984;28;20193;-76
2022/08/12 04:20:49;;;;;;;6.40;5.67;;;;;;;-141.28;100.00;45487.56;5073850;28;20258;-76
2022/08/12 04:23:19;;;;;;;8.53;5.97;;;;;;;-141.28;100.00;45489.53;5073944;28;20192;-75
2022/08/12 04:25:46;;;;;;;12.80;5.97;;;;;;;-141.28;100.00;45460.13;5069986;28;20204;-75
2022/08/12 04:28:13;;;;;;;6.83;6.10;;;;;;;-141.28;100.00;45473.84;5049971;28;20633;-73
2022/08/12 04:30:42;;;;;;;8.67;6.43;;;;;;;-141.28;100.00;45436.63;5073112;28;20196;-77
2022/08/12 04:33:11;;;;;;;7.23;6.53;;;;;;;-141.28;100.00;45426.81;5073752;28;20231;-74
2022/08/12 04:35:41;;;;;;;7.03;6.33;;;;;;;-141.28;100.00;45424.84;5074233;28;20634;-74
2022/08/12 04:38:09;;;;;;;9.87;6.20;;;;;;;-141.28;100.00;45438.56;5069094;28;20200;-74
2022/08/12 04:40:36;;;;;;;7.40;6.60;;;;;;;-141.28;100.00;45383.69;5075509;28;20192;-75
2022/08/12 04:43:05;;;;;;;11.20;7.40;;;;;;;-141.28;100.00;45356.25;5074485;28;20196;-74
2022/08/12 04:45:36;;;;;;;12.07;8.30;;;;;;;-141.28;100.00;45311.19;5074138;28;20227;-78
2022/08/12 04:48:04;;;;;;;11.87;8.47;;;;;;;-141.28;100.00;45266.09;5073569;28;20671;-76
2022/08/12 04:50:33;;;;;;;10.80;8.40;;;;;;;-141.28;100.00;45246.50;5059934;28;20220;-73
2022/08/12 04:53:02;;;;;;;9.67;8.03;;;;;;;-141.28;100.00;45183.78;5053956;28;20225;-76
2022/08/12 04:55:30;;;;;;;11.60;8.37;;;;;;;-141.28;100.00;45095.59;5054367;28;20210;-75
2022/08/12 04:57:58;;;;;;;10.70;8.20;;;;;;;-141.28;100.00;45062.28;5054034;28;20197;-76
2022/08/12 05:00:26;;;;;;;9.80;8.17;;;;;;;-141.28;100.00;44956.47;5054458;28;20274;-76
2022/08/12 05:02:54;;;;;;;13.93;8.43;;;;;;;-141.28;100.00;44944.72;5054006;28;20225;-75
2022/08/12 05:05:22;;;;;;;15.33;8.67;;;;;;;-141.28;100.00;44917.28;5054190;28;20201;-76
2022/08/12 05:07:50;;;;;;;11.53;8.67;;;;;;;-141.28;100.00;44862.41;5054076;28;20200;-75
2022/08/12 05:10:20;;;;;;;8.80;7.77;;;;;;;-141.28;100.00;44819.28;5054085;28;20663;-73
2022/08/12 05:12:51;;;;;;;12.47;7.00;;;;;;;-141.28;100.00;44901.59;5053503;28;20664;-74
2022/08/12 05:15:19;;;;;;;8.83;7.33;;;;;;;-141.28;100.00;44929.03;5054456;28;20656;-76
2022/08/12 05:17:46;;;;;;;11.17;7.10;;;;;;;-141.28;100.00;44960.38;5054095;28;20193;-76
2022/08/12 05:20:15;;;;;;;10.53;7.10;;;;;;;-141.28;100.00;45046.59;5054717;28;20228;-75
2022/08/12 05:22:49;;;;;;;11.13;7.40;;;;;;;-141.28;100.00;45068.16;5054346;28;20197;-75
2022/08/12 05:25:21;;;;;;;7.37;6.57;;;;;;;-141.28;100.00;45121.09;5053541;28;20193;-75
2022/08/12 05:27:48;;;;;;;11.00;7.43;;;;;;;-141.28;100.00;45144.59;5052295;28;20197;-74
2022/08/12 05:30:16;;;;;;;12.33;7.33;;;;;;;-141.28;100.00;45132.84;5053851;28;20256;-75
2022/08/12 05:32:44;;;;;;;9.10;7.33;;;;;;;-141.28;100.00;45105.41;5054957;28;20260;-77
2022/08/12 05:35:12;;;;;;;8.03;6.87;;;;;;;-141.28;100.00;45062.28;5053806;28;20626;-75
2022/08/12 05:37:39;;;;;;;11.00;6.80;;;;;;;-141.28;100.00;44997.63;5054336;28;20251;-75
2022/08/12 05:40:08;;;;;;;12.80;7.13;;;;;;;-141.28;100.00;44979.97;5065512;28;20309;-75
2022/08/12 05:42:39;;;;;;;9.13;6.83;;;;;;;-141.28;100.00;44938.81;5066681;28;20205;-77
2022/08/12 05:45:10;;;;;;;7.23;5.80;;;;;;;-141.28;100.00;44940.78;5066582;28;20267;-76
2022/08/12 05:47:37;;;;;;;9.13;6.40;;;;;;;-141.28;100.00;44929.03;5052485;28;20200;-74
2022/08/12 05:50:11;;;;;;;6.13;5.53;;;;;;;-141.28;100.00;44925.09;5052699;28;20192;-74
2022/08/12 05:52:38;;;;;;;8.90;5.57;;;;;;;-141.28;100.00;44964.31;5060872;28;20273;-77
2022/08/12 05:55:07;;;;;;;7.90;5.63;;;;;;;-141.28;100.00;45015.25;5057616;28;20292;-76
2022/08/12 05:57:34;;;;;;;6.33;5.47;;;;;;;-141.28;100.00;45034.84;5052926;28;20296;-76
2022/08/12 06:00:05;;;;;;;7.73;5.03;;;;;;;-141.28;100.00;45034.84;5067753;28;20636;-75
2022/08/12 06:02:33;;;;;;;7.37;6.57;;;;;;;-141.28;100.00;45017.22;5064151;28;20208;-75
2022/08/12 06:05:01;;;;;;;11.10;6.03;;;;;;;-141.28;100.00;44979.97;5052273;28;20208;-77
2022/08/12 06:07:28;;;;;;;8.80;6.87;;;;;;;-141.28;100.00;44942.75;5052704;28;20208;-75
2022/08/12 06:09:55;;;;;;;11.03;6.30;;;;;;;-141.28;100.00;44956.47;5051587;28;20652;-75
2022/08/12 06:12:22;;;;;;;11.43;7.03;;;;;;;-141.28;100.00;44962.34;5053328;28;20220;-74
2022/08/12 06:14:49;;;;;;;8.50;6.70;;;;;;;-141.28;100.00;45058.38;5052707;28;20670;-74
2022/08/12 06:17:18;;;;;;;7.97;6.57;;;;;;;-141.28;100.00;45152.44;5052920;28;20660;-74
2022/08/12 06:19:47;;;;;;;10.07;7.47;;;;;;;-141.28;100.00;45360.19;5052594;28;20227;-75
2022/08/12 06:22:14;;;;;;;10.97;7.10;;;;;;;-141.28;100.00;45307.25;5053419;28;20205;-74
2022/08/12 06:24:41;;;;;;;16.43;7.80;;;;;;;-141.28;100.00;45295.50;5066413;28;20196;-76
2022/08/12 06:27:08;;;;;;;14.40;7.90;;;;;;;-141.28;100.00;45313.13;5061812;28;20219;-76
2022/08/12 06:29:37;;;;;;;14.47;8.77;;;;;;;-141.28;100.00;45322.94;5068205;28;20212;-75
2022/08/12 06:32:05;;;;;;;13.70;7.30;;;;;;;-141.28;100.00;45375.84;5062744;28;20216;-77
2022/08/12 06:34:35;;;;;;;38.27;9.97;;;;;;;-141.28;100.00;45364.09;5067907;28;20197;-76
2022/08/12 06:37:03;;;;;;;25.13;8.73;;;;;;;-141.28;100.00;45344.50;5064663;28;20207;-74
2022/08/12 06:39:30;;;;;;;18.33;7.63;;;;;;;-141.28;100.00;45340.59;5073366;28;20208;-77
2022/08/12 06:44:43;;;;;;;11.67;8.37;;;;;;;-141.28;100.00;45522.84;5051354;28;20293;-75
2022/08/12 06:47:11;;;;;;;10.93;7.40;;;;;;;-141.28;100.00;45583.63;5071954;28;20212;-75
2022/08/12 06:49:39;;;;;;;18.73;8.37;;;;;;;-141.28;100.00;45650.25;5071649;28;20196;-74
2022/08/12 06:52:07;;;;;;;26.80;8.87;;;;;;;-141.28;100.00;45689.47;5067266;28;20681;-76
2022/08/12 06:54:35;;;;;;;16.23;7.73;;;;;;;-141.28;100.00;45699.25;5052430;28;20584;-76
2022/08/12 06:57:03;;;;;;;15.47;7.17;;;;;;;-141.28;100.00;45736.50;5053167;28;20252;-76
2022/08/12 06:59:34;;;;;;;16.80;8.93;;;;;;;-141.28;100.00;45728.66;5071613;28;20211;-75
2022/08/12 07:02:02;;;;;;;17.30;9.37;;;;;;;-141.28;100.00;45695.34;5072877;28;20204;-74
2022/08/12 07:04:29;;;;;;;18.00;8.97;;;;;;;-141.28;100.00;45640.47;5079988;28;20188;-75
2022/08/12 07:06:57;;;;;;;13.87;9.07;;;;;;;-141.28;100.00;45611.06;5071329;28;20200;-76
2022/08/12 07:09:24;;;;;;;19.40;8.10;;;;;;;-141.28;100.00;45636.53;5061305;28;20196;-77
2022/08/12 07:11:51;;;;;;;15.70;8.33;;;;;;;-141.28;100.00;45650.25;5054668;28;20207;-74
2022/08/12 07:14:18;;;;;;;11.27;7.63;;;;;;;-141.28;100.00;45677.69;5061384;28;20707;-75
2022/08/12 07:17:00;;;;;;;11.43;7.43;;;;;;;-141.28;100.00;45720.81;5070440;28;20287;-75
2022/08/12 07:19:32;;;;;;;12.13;7.47;;;;;;;-141.28;100.00;45716.91;5071305;28;20199;-74
2022/08/12 07:22:05;;;;;;;10.67;7.00;;;;;;;-141.28;100.00;45699.25;5066561;28;20219;-75
2022/08/12 07:24:33;;;;;;;10.60;6.83;;;;;;;-141.28;100.00;45681.63;5063186;28;20246;-76
2022/08/12 07:27:00;;;;;;;10.33;7.37;;;;;;;-141.28;100.00;45675.75;5056535;28;20201;-74
2022/08/12 07:29:27;;;;;;;14.07;7.50;;;;;;;-141.28;100.00;45689.47;5069048;28;20218;-75
2022/08/12 07:31:58;;;;;;;11.77;7.97;;;;;;;-141.28;100.00;45677.69;5068228;28;20200;-77
2022/08/12 07:34:26;;;;;;;8.23;7.13;;;;;;;-141.28;100.00;45636.53;5051383;28;20282;-75
2022/08/12 07:36:54;;;;;;;14.97;7.27;;;;;;;-141.28;100.00;45624.78;5051001;28;20265;-75
2022/08/12 07:39:23;;;;;;;12.07;7.03;;;;;;;-141.28;100.00;45636.53;5051564;28;20207;-75
2022/08/12 07:41:51;;;;;;;14.80;6.63;;;;;;;-141.28;100.00;45650.25;5051929;28;20255;-76
2022/08/12 07:44:19;;;;;;;10.33;7.10;;;;;;;-141.28;100.00;45636.53;5062182;28;20250;-75
2022/08/12 07:46:46;;;;;;;12.43;8.20;;;;;;;-141.28;100.00;45665.94;5064727;28;20201;-74
2022/08/12 07:49:15;;;;;;;18.13;9.53;;;;;;;-141.28;100.00;45654.19;5051145;28;20197;-76
2022/08/12 07:51:45;;;;;;;11.93;7.40;;;;;;;-141.28;100.00;45656.13;5068957;28;20666;-74
2022/08/12 07:54:14;;;;;;;15.97;8.00;;;;;;;-141.28;100.00;45626.72;5070203;28;20227;-76
2022/08/12 07:56:42;;;;;;;12.40;10.53;;;;;;;-141.28;100.00;45646.34;5069053;28;20207;-76
2022/08/12 07:59:11;;;;;;;15.07;10.37;;;;;;;-141.28;100.00;45579.69;5070203;28;20200;-75
2022/08/12 08:01:38;;;;;;;9.23;6.03;;;;;;;-141.28;100.00;45567.94;5070510;28;20203;-77
2022/08/12 08:06:51;;;;;;;7.53;5.43;;;;;;;-141.28;100.00;45583.63;5059070;28;20721;-74
2022/08/12 08:09:21;;;;;;;6.03;4.47;;;;;;;-141.28;100.00;45587.53;5063619;28;20198;-74
2022/08/12 08:14:36;;;;;;;10.27;4.50;;;;;;;-141.28;100.00;45589.50;5050669;28;20234;-75
2022/08/12 08:17:06;;;;;;;6.97;4.70;;;;;;;-141.28;100.00;45579.69;5051006;28;20197;-74
2022/08/12 08:19:33;;;;;;;7.00;4.63;;;;;;;-141.28;100.00;45524.81;5050869;28;20205;-75
2022/08/12 08:22:01;;;;;;;4.80;4.17;;;;;;;-141.28;100.00;45542.47;5050852;28;20710;-74
2022/08/12 08:24:29;;;;;;;9.17;3.90;;;;;;;-141.28;100.00;45573.81;5050661;28;20201;-75
2022/08/12 08:26:59;;;;;;;10.83;4.63;;;;;;;-141.28;100.00;45589.50;5049538;28;20208;-74
2022/08/12 08:29:28;;;;;;;7.90;3.17;;;;;;;-141.28;100.00;45607.13;5053999;28;20219;-77
2022/08/12 08:31:59;;;;;;;4.50;4.10;;;;;;;-141.28;100.00;45626.72;5054508;28;20197;-76
2022/08/12 08:34:28;;;;;;;6.00;3.80;;;;;;;-141.28;100.00;45638.50;5060751;28;20221;-75
2022/08/12 08:36:58;;;;;;;5.67;3.80;;;;;;;-141.28;100.00;45677.69;5073754;28;20201;-78
2022/08/12 08:39:30;;;;;;;5.80;4.43;;;;;;;-141.28;100.00;45777.66;5073826;28;20192;-74
2022/08/12 08:44:45;;;;;;;7.30;3.40;;;;;;;-141.28;100.00;45912.91;5074113;28;20599;-76
2022/08/12 08:47:13;;;;;;;6.20;3.43;;;;;;;-141.28;100.00;45975.66;5041303;28;20197;-74
2022/08/12 08:49:40;;;;;;;5.80;3.20;;;;;;;-141.28;100.00;45956.03;5054124;28;20197;-75
2022/08/12 08:52:10;;;;;;;6.43;3.23;;;;;;;-141.28;100.00;45999.16;5054021;28;20292;-75
2022/08/12 08:54:39;;;;;;;4.33;3.93;;;;;;;-141.28;100.00;46077.56;5054910;28;20221;-77
2022/08/12 08:57:09;;;;;;;6.13;3.60;;;;;;;-141.28;100.00;46079.53;5054584;28;20204;-77
2022/08/12 08:59:38;;;;;;;5.00;3.40;;;;;;;-141.28;100.00;46124.63;5055158;28;20193;-74
2022/08/12 09:02:05;;;;;;;3.67;3.00;;;;;;;-141.28;100.00;46218.72;5053942;28;20201;-76
2022/08/12 09:04:33;;;;;;;3.63;3.03;;;;;;;-141.28;100.00;46214.81;5053937;28;20204;-75
2022/08/12 09:07:01;;;;;;;5.93;3.03;;;;;;;-141.28;100.00;46212.84;5054142;28;20211;-74
2022/08/12 09:09:29;;;;;;;7.60;3.53;;;;;;;-141.28;100.00;46289.28;5055642;28;20201;-74
2022/08/12 09:14:43;;;;;;;5.90;3.27;;;;;;;-141.28;100.00;46528.47;5054500;28;20240;-75
2022/08/12 09:17:12;;;;;;;3.07;2.73;;;;;;;-141.28;100.00;47132.38;5053750;28;20252;-76
2022/08/12 09:19:40;;;;;;;3.23;2.90;;;;;;;-141.28;100.00;47995.31;5042631;28;20199;-76
2022/08/12 09:22:08;;;;;;;4.57;3.00;;;;;;;-141.28;100.00;48222.84;5055773;28;20576;-75
2022/08/12 09:24:36;;;;;;;6.37;3.60;;;;;;;-141.28;100.00;48540.63;5054535;28;20229;-76
2022/08/12 09:27:05;;;;;;;4.63;3.17;;;;;;;-141.28;100.00;48768.19;5054223;28;20207;-77
2022/08/12 09:29:33;;;;;;;4.87;2.90;;;;;;;-141.28;100.00;49521.63;5057953;28;20215;-77
2022/08/12 09:32:05;;;;;;;8.13;4.37;;;;;;;-141.28;100.00;49713.94;5072866;28;20262;-77
2022/08/12 09:34:33;;;;;;;8.50;3.50;;;;;;;-141.28;100.00;49741.44;5072505;28;20224;-75
2022/08/12 09:37:02;;;;;;;7.90;2.77;;;;;;;-141.28;100.00;49721.81;5059778;28;20567;-76
2022/08/12 09:39:31;;;;;;;3.13;2.83;;;;;;;-141.28;100.00;49553.03;5046255;28;20686;-76
2022/08/12 09:47:29;;;;;;;4.77;3.10;;;;;;;-141.28;100.00;49082.13;5056142;28;20595;-75
2022/08/12 09:49:56;;;;;;;4.50;2.83;;;;;;;-141.28;100.00;49062.50;5072765;28;20196;-74
2022/08/12 09:52:23;;;;;;;5.17;2.67;;;;;;;-141.28;100.00;48995.78;5058688;28;20199;-75
2022/08/12 09:54:50;;;;;;;3.07;2.80;;;;;;;-141.28;100.00;48968.31;5061684;28;20224;-76
2022/08/12 09:57:19;;;;;;;5.27;2.97;;;;;;;-141.28;100.00;49015.41;5070481;28;20196;-77
2022/08/12 09:59:46;;;;;;;5.73;3.10;;;;;;;-141.28;100.00;48982.03;5062034;28;20207;-75
2022/08/12 10:02:15;;;;;;;3.27;2.97;;;;;;;-141.28;100.00;49007.56;5052552;28;20281;-77
2022/08/12 10:04:47;;;;;;;3.40;3.10;;;;;;;-141.28;100.00;48984.00;5052826;28;20671;-76
2022/08/12 10:07:16;;;;;;;3.33;2.90;;;;;;;-141.28;100.00;49033.06;5065654;28;20201;-76
2022/08/12 10:09:43;;;;;;;4.90;3.60;;;;;;;-141.28;100.00;49029.13;5065254;28;20520;-75
2022/08/12 10:14:56;;;;;;;4.10;3.33;;;;;;;-141.28;100.00;49127.25;5072171;28;20234;-76
2022/08/12 10:17:24;;;;;;;3.87;3.27;;;;;;;-141.28;100.00;48964.38;5070689;28;20682;-73
2022/08/12 10:19:54;;;;;;;4.60;3.03;;;;;;;-141.28;100.00;49062.50;5071651;28;20279;-75
2022/08/12 10:22:22;;;;;;;3.13;2.80;;;;;;;-141.28;100.00;48889.84;5071931;28;20200;-77
2022/08/12 10:30:18;;;;;;;3.50;3.17;;;;;;;-141.28;100.00;48748.56;5071941;28;20376;-75
2022/08/12 10:32:59;;;;;;;3.33;2.77;;;;;;;-141.28;100.00;48740.72;5071601;28;20612;-75
2022/08/12 10:35:31;;;;;;;3.00;2.70;;;;;;;-141.28;100.00;48787.81;5072247;28;20201;-75
2022/08/12 10:38:01;;;;;;;5.37;3.00;;;;;;;-141.28;100.00;48809.41;5073627;28;20240;-75
2022/08/12 10:40:29;;;;;;;20.47;4.73;;;;;;;-141.28;100.00;48829.00;5077366;28;20197;-76
2022/08/12 10:45:41;;;;;;;3.23;2.93;;;;;;;-141.28;100.00;49066.41;5068488;28;20696;-76
2022/08/12 10:48:11;;;;;;;3.00;2.70;;;;;;;-141.28;100.00;48817.25;5072099;28;20217;-75
2022/08/12 10:50:40;;;;;;;3.17;2.60;;;;;;;-141.28;100.00;48764.28;5070973;28;20197;-75
2022/08/12 10:53:09;;;;;;;5.27;3.07;;;;;;;-141.28;100.00;48772.13;5061063;28;20199;-76
2022/08/12 10:55:38;;;;;;;4.83;3.17;;;;;;;-141.28;100.00;48772.13;5044311;28;20266;-77
2022/08/12 10:58:06;;;;;;;5.63;3.10;;;;;;;-141.28;100.00;48815.28;5070195;28;20271;-76
2022/08/12 11:00:37;;;;;;;5.03;3.00;;;;;;;-141.28;100.00;48783.91;5071300;28;20279;-78
2022/08/12 11:03:08;;;;;;;4.77;2.93;;;;;;;-141.28;100.00;48797.63;5061134;28;20209;-75
2022/08/12 11:05:38;;;;;;;3.40;3.10;;;;;;;-141.28;100.00;49294.03;5069154;28;20624;-77
2022/08/12 11:08:10;;;;;;;5.43;3.77;;;;;;;-141.28;100.00;48838.81;5071404;28;20209;-76
2022/08/12 11:10:38;;;;;;;3.43;2.97;;;;;;;-141.28;100.00;48842.75;5070958;28;20203;-74
2022/08/12 11:13:06;;;;;;;4.93;3.13;;;;;;;-141.28;100.00;48850.59;5071118;28;20207;-76
2022/08/12 11:15:33;;;;;;;4.97;3.40;;;;;;;-141.28;100.00;48823.13;5038641;28;20201;-77
2022/08/12 11:18:01;;;;;;;12.77;3.97;;;;;;;-141.28;100.00;48838.81;5051284;28;20226;-75
2022/08/12 11:20:28;;;;;;;12.37;4.00;;;;;;;-141.28;100.00;48825.09;5051255;28;20243;-75
2022/08/12 11:22:56;;;;;;;9.43;3.23;;;;;;;-141.28;100.00;48827.06;5051258;28;20206;-76
2022/08/12 11:25:26;;;;;;;5.47;3.40;;;;;;;-141.28;100.00;48817.25;5051496;28;20198;-75
2022/08/12 11:27:54;;;;;;;8.07;3.27;;;;;;;-141.28;100.00;48711.31;5050086;28;20207;-74
2022/08/12 11:30:22;;;;;;;7.40;3.43;;;;;;;-141.28;100.00;48823.13;5050955;28;20217;-76
2022/08/12 11:32:50;;;;;;;3.73;3.23;;;;;;;-141.28;100.00;48834.91;5050728;28;20291;-74
2022/08/12 11:35:18;;;;;;;5.33;3.67;;;;;;;-141.28;100.00;48880.03;5050847;28;20234;-74
2022/08/12 11:37:45;;;;;;;14.23;3.67;;;;;;;-141.28;100.00;48834.91;5069492;28;20659;-74
2022/08/12 11:40:12;;;;;;;3.20;2.90;;;;;;;-141.28;100.00;48897.69;5071078;28;20205;-75
2022/08/12 11:42:41;;;;;;;3.73;3.43;;;;;;;-141.28;100.00;48903.56;5051754;28;20195;-74
2022/08/12 11:45:09;;;;;;;6.63;3.13;;;;;;;-141.28;100.00;48925.16;5051183;28;20228;-76
2022/08/12 11:47:39;;;;;;;4.43;3.17;;;;;;;-141.28;100.00;48940.84;5045819;28;20195;-77
2022/08/12 11:50:07;;;;;;;3.63;3.33;;;;;;;-141.28;100.00;48925.16;5069910;28;20206;-75
2022/08/12 11:52:35;;;;;;;3.37;2.90;;;;;;;-141.28;100.00;48862.38;5070049;28;20208;-74
2022/08/12 11:55:04;;;;;;;5.43;3.60;;;;;;;-141.28;100.00;48913.38;5071043;28;20243;-76
2022/08/12 11:57:31;;;;;;;10.93;4.40;;;;;;;-141.28;100.00;48870.22;5071584;28;20299;-75
2022/08/12 12:00:03;;;;;;;11.60;3.97;;;;;;;-141.28;100.00;48905.53;5070922;28;20200;-75
2022/08/12 12:02:32;;;;;;;7.70;3.60;;;;;;;-141.28;100.00;48925.16;5071918;28;20210;-75
2022/08/12 12:04:59;;;;;;;4.80;3.17;;;;;;;-141.28;100.00;48925.16;5074960;28;20196;-76
2022/08/12 12:07:28;;;;;;;5.57;3.57;;;;;;;-141.28;100.00;48925.16;5075068;28;20194;-76
2022/08/12 12:09:57;;;;;;;4.37;3.50;;;;;;;-141.28;100.00;48978.13;5074636;28;20194;-75
2022/08/12 12:12:25;;;;;;;4.93;3.47;;;;;;;-141.28;100.00;49019.31;5074853;28;20211;-76
2022/08/12 12:14:55;;;;;;;4.13;3.40;;;;;;;-141.28;100.00;49254.78;5074487;28;20246;-75
2022/08/12 12:17:25;;;;;;;5.80;3.40;;;;;;;-141.28;100.00;49482.41;5074489;28;20230;-75
2022/08/12 12:19:55;;;;;;;8.83;3.80;;;;;;;-141.28;100.00;49460.81;5061057;28;20360;-75
2022/08/12 12:22:23;;;;;;;6.13;3.93;;;;;;;-141.28;100.00;49405.88;5054809;28;20194;-77
2022/08/12 12:24:50;;;;;;;4.47;3.70;;;;;;;-141.28;100.00;49380.34;5054268;28;20617;-75
2022/08/12 12:27:19;;;;;;;5.37;3.47;;;;;;;-141.28;100.00;49433.34;5054475;28;20589;-74
2022/08/12 12:29:46;;;;;;;4.87;3.60;;;;;;;-141.28;100.00;49747.31;5054562;28;20224;-76
2022/08/12 12:32:14;;;;;;;6.90;3.90;;;;;;;-141.28;100.00;49470.63;5056549;28;20201;-74
2022/08/12 12:34:44;;;;;;;3.97;3.60;;;;;;;-141.28;100.00;49415.69;5058990;28;20229;-75
2022/08/12 12:37:12;;;;;;;3.67;3.37;;;;;;;-141.28;100.00;49431.38;5055190;28;20200;-75
2022/08/12 12:39:42;;;;;;;4.20;3.80;;;;;;;-141.28;100.00;49337.19;5054572;28;20243;-74
2022/08/12 12:42:09;;;;;;;5.43;3.20;;;;;;;-141.28;100.00;49113.50;5054643;28;20525;-75
2022/08/12 12:44:36;;;;;;;4.57;3.70;;;;;;;-141.28;100.00;48989.91;5061876;28;20690;-75
2022/08/12 12:47:04;;;;;;;5.80;3.63;;;;;;;-141.28;100.00;48911.41;5073092;28;20209;-73
2022/08/12 12:49:31;;;;;;;5.43;3.63;;;;;;;-141.28;100.00;48944.78;5054706;28;20205;-76
2022/08/12 12:52:00;;;;;;;8.47;4.13;;;;;;;-141.28;100.00;48901.59;5053910;28;20192;-77
2022/08/12 12:54:28;;;;;;;6.63;3.60;;;;;;;-141.28;100.00;48874.13;5054756;28;20228;-75
2022/08/12 12:56:57;;;;;;;3.80;3.47;;;;;;;-141.28;100.00;48891.78;5069010;28;20207;-78
2022/08/12 12:59:27;;;;;;;7.90;4.90;;;;;;;-141.28;100.00;49044.84;5074738;28;20207;-75
2022/08/12 13:01:55;;;;;;;6.20;4.20;;;;;;;-141.28;100.00;49241.03;5073382;28;20296;-75
2022/08/12 13:04:23;;;;;;;7.27;4.00;;;;;;;-141.28;100.00;49347.00;5074274;28;20195;-74
2022/08/12 13:06:52;;;;;;;7.93;4.77;;;;;;;-141.28;100.00;49462.78;5073330;28;20206;-74
2022/08/12 13:09:21;;;;;;;7.93;4.00;;;;;;;-141.28;100.00;49855.25;5065072;28;20207;-74